createdAt,value
2022-12-01T00:01:06.791Z,0.74
2022-12-01T00:03:33.717Z,0.74
2022-12-01T00:06:02.009Z,0.75
2022-12-01T00:08:29.552Z,0.70
2022-12-01T00:10:56.467Z,0.64
2022-12-01T00:13:23.048Z,0.58
2022-12-01T00:15:49.595Z,0.62
2022-12-01T00:18:16.319Z,0.66
2022-12-01T00:20:42.906Z,0.66
2022-12-01T00:23:09.748Z,0.62
2022-12-01T00:25:36.413Z,0.59
2022-12-01T00:28:03.087Z,0.55
2022-12-01T00:30:29.859Z,0.52
2022-12-01T00:32:56.379Z,0.50
2022-12-01T00:35:23.157Z,0.49
2022-12-01T00:37:49.660Z,0.49
2022-12-01T00:40:16.245Z,0.53
2022-12-01T00:42:42.732Z,0.48
2022-12-01T00:45:09.943Z,0.46
2022-12-01T00:47:36.533Z,0.48
2022-12-01T00:50:03.674Z,0.45
2022-12-01T00:52:30.174Z,0.40
2022-12-01T00:54:56.666Z,0.40
2022-12-01T00:57:23.216Z,0.40
2022-12-01T00:59:49.990Z,0.44
2022-12-01T01:02:16.818Z,0.45
2022-12-01T01:04:43.391Z,0.44
2022-12-01T01:07:09.937Z,0.44
2022-12-01T01:09:36.662Z,0.40
2022-12-01T01:12:03.252Z,0.34
2022-12-01T01:14:30.016Z,0.30
2022-12-01T01:16:56.605Z,0.27
2022-12-01T01:19:23.809Z,0.25
2022-12-01T01:21:50.415Z,0.22
2022-12-01T01:24:17.003Z,0.17
2022-12-01T01:26:43.547Z,0.16
2022-12-01T01:29:10.183Z,0.15
2022-12-01T01:31:36.743Z,0.12
2022-12-01T01:34:03.959Z,0.12
2022-12-01T01:36:31.395Z,0.16
2022-12-01T01:38:57.946Z,0.09
2022-12-01T01:41:24.892Z,0.07
2022-12-01T01:43:57.673Z,0.05
2022-12-01T01:46:27.569Z,0.00
2022-12-01T01:49:02.178Z,-0.02
2022-12-01T01:51:46.708Z,0.05
2022-12-01T01:54:22.334Z,0.08
2022-12-01T01:56:51.770Z,0.09
2022-12-01T01:59:22.639Z,0.06
2022-12-01T02:01:56.860Z,0.00
2022-12-01T02:04:25.108Z,-0.05
2022-12-01T02:06:51.904Z,-0.09
2022-12-01T02:09:18.626Z,-0.14
2022-12-01T02:11:58.450Z,-0.18
2022-12-01T02:14:49.945Z,-0.23
2022-12-01T02:17:43.491Z,-0.25
2022-12-01T02:20:21.856Z,-0.24
2022-12-01T02:23:20.383Z,-0.24
2022-12-01T02:26:31.197Z,-0.20
2022-12-01T02:29:22.314Z,-0.13
2022-12-01T02:31:59.274Z,-0.09
2022-12-01T02:34:45.047Z,0.03
2022-12-01T02:37:20.503Z,0.34
2022-12-01T02:40:24.767Z,0.66
2022-12-01T02:43:07.677Z,0.85
2022-12-01T02:45:45.903Z,1.03
2022-12-01T02:48:19.442Z,1.15
2022-12-01T02:50:46.628Z,1.29
2022-12-01T02:53:18.995Z,1.56
2022-12-01T02:55:51.664Z,2.00
2022-12-01T02:58:18.446Z,2.25
2022-12-01T03:01:04.427Z,2.41
2022-12-01T03:04:10.922Z,2.47
2022-12-01T03:07:02.583Z,2.41
2022-12-01T03:09:47.562Z,2.07
2022-12-01T03:12:34.564Z,1.96
2022-12-01T03:15:01.624Z,1.73
2022-12-01T03:17:36.289Z,1.45
2022-12-01T03:20:08.741Z,1.19
2022-12-01T03:22:42.532Z,1.00
2022-12-01T03:25:12.088Z,0.82
2022-12-01T03:28:00.607Z,0.71
2022-12-01T03:30:32.385Z,0.57
2022-12-01T03:33:05.170Z,0.54
2022-12-01T03:35:39.570Z,0.53
2022-12-01T03:38:13.389Z,0.49
2022-12-01T03:40:41.389Z,0.48
2022-12-01T03:43:11.941Z,0.43
2022-12-01T03:45:52.611Z,0.41
2022-12-01T03:48:19.381Z,0.36
2022-12-01T03:51:14.598Z,0.35
2022-12-01T03:53:51.052Z,0.35
2022-12-01T03:56:22.351Z,0.26
2022-12-01T03:58:51.258Z,0.24
2022-12-01T04:01:17.996Z,0.36
2022-12-01T04:03:46.622Z,0.46
2022-12-01T04:06:13.695Z,0.50
2022-12-01T04:08:40.247Z,0.45
2022-12-01T04:11:32.212Z,0.41
2022-12-01T04:13:59.135Z,0.27
2022-12-01T04:16:25.839Z,0.20
2022-12-01T04:18:52.439Z,0.18
2022-12-01T04:21:19.017Z,0.19
2022-12-01T04:24:00.507Z,0.19
2022-12-01T04:26:32.336Z,0.22
2022-12-01T04:29:00.699Z,0.23
2022-12-01T04:31:27.841Z,0.20
2022-12-01T04:33:58.850Z,0.17
2022-12-01T04:36:26.231Z,0.09
2022-12-01T04:38:53.127Z,0.13
2022-12-01T04:41:19.767Z,0.12
2022-12-01T04:43:46.281Z,0.17
2022-12-01T04:46:13.013Z,0.16
2022-12-01T04:48:40.255Z,0.22
2022-12-01T04:51:08.408Z,0.22
2022-12-01T04:53:36.296Z,0.18
2022-12-01T04:56:03.725Z,0.20
2022-12-01T04:58:32.217Z,0.18
2022-12-01T05:01:06.593Z,0.17
2022-12-01T05:03:37.294Z,0.17
2022-12-01T05:06:15.272Z,0.11
2022-12-01T05:08:42.224Z,0.11
2022-12-01T05:11:11.765Z,0.09
2022-12-01T05:13:43.553Z,0.08
2022-12-01T05:16:16.169Z,0.08
2022-12-01T05:18:43.352Z,0.14
2022-12-01T05:21:11.183Z,0.16
2022-12-01T05:23:39.079Z,0.22
2022-12-01T05:26:08.018Z,0.30
2022-12-01T05:28:35.384Z,0.36
2022-12-01T05:31:02.654Z,0.33
2022-12-01T05:33:29.739Z,0.33
2022-12-01T05:35:56.343Z,0.32
2022-12-01T05:38:22.899Z,0.36
2022-12-01T05:40:53.139Z,0.30
2022-12-01T05:43:26.868Z,0.22
2022-12-01T05:45:55.964Z,0.15
2022-12-01T05:48:23.001Z,0.13
2022-12-01T05:50:49.471Z,0.12
2022-12-01T05:53:16.235Z,0.11
2022-12-01T05:55:42.928Z,0.08
2022-12-01T05:58:09.914Z,0.12
2022-12-01T06:00:43.862Z,0.13
2022-12-01T06:03:12.087Z,0.12
2022-12-01T06:05:38.631Z,0.09
2022-12-01T06:08:05.292Z,0.13
2022-12-01T06:10:31.840Z,0.10
2022-12-01T06:12:58.444Z,0.08
2022-12-01T06:15:24.966Z,0.08
2022-12-01T06:17:51.486Z,0.07
2022-12-01T06:20:18.167Z,0.06
2022-12-01T06:22:44.669Z,0.05
2022-12-01T06:25:11.339Z,0.03
2022-12-01T06:27:37.889Z,0.02
2022-12-01T06:30:05.115Z,-0.02
2022-12-01T06:32:31.617Z,-0.06
2022-12-01T06:34:58.319Z,-0.10
2022-12-01T06:37:24.860Z,-0.11
2022-12-01T06:39:52.499Z,-0.08
2022-12-01T06:42:19.097Z,-0.05
2022-12-01T06:44:46.679Z,0.00
2022-12-01T06:47:13.198Z,0.00
2022-12-01T06:49:39.729Z,-0.01
2022-12-01T06:52:06.319Z,-0.08
2022-12-01T06:54:33.499Z,-0.15
2022-12-01T06:56:59.996Z,-0.17
2022-12-01T06:59:26.790Z,-0.23
2022-12-01T07:01:53.704Z,-0.26
2022-12-01T07:04:20.375Z,-0.26
2022-12-01T07:06:46.910Z,-0.26
2022-12-01T07:09:13.467Z,-0.26
2022-12-01T07:11:39.974Z,-0.26
2022-12-01T07:14:06.756Z,-0.20
2022-12-01T07:16:33.335Z,-0.17
2022-12-01T07:19:00.028Z,-0.17
2022-12-01T07:21:26.623Z,-0.10
2022-12-01T07:23:54.402Z,0.05
2022-12-01T07:26:20.991Z,0.08
2022-12-01T07:28:47.601Z,0.15
2022-12-01T07:31:17.217Z,0.11
2022-12-01T07:33:43.856Z,0.08
2022-12-01T07:36:11.793Z,0.03
2022-12-01T07:38:39.411Z,0.00
2022-12-01T07:41:08.872Z,-0.05
2022-12-01T07:43:35.965Z,0.00
2022-12-01T07:46:05.677Z,0.00
2022-12-01T07:48:32.283Z,-0.02
2022-12-01T07:50:58.770Z,-0.07
2022-12-01T07:53:25.346Z,-0.05
2022-12-01T07:55:51.889Z,-0.03
2022-12-01T07:58:18.393Z,-0.06
2022-12-01T08:00:45.112Z,-0.02
2022-12-01T08:03:11.845Z,0.03
2022-12-01T08:05:38.449Z,0.03
2022-12-01T08:08:05.382Z,0.08
2022-12-01T08:10:32.181Z,0.12
2022-12-01T08:12:58.715Z,0.16
2022-12-01T08:15:25.309Z,0.23
2022-12-01T08:17:51.924Z,0.34
2022-12-01T08:20:23.745Z,0.41
2022-12-01T08:22:50.619Z,0.50
2022-12-01T08:25:17.227Z,0.58
2022-12-01T08:27:43.737Z,0.66
2022-12-01T08:30:10.680Z,0.69
2022-12-01T08:32:37.205Z,0.78
2022-12-01T08:35:03.914Z,0.84
2022-12-01T08:37:30.413Z,0.87
2022-12-01T08:39:56.918Z,0.94
2022-12-01T08:42:23.457Z,1.01
2022-12-01T08:44:49.986Z,1.07
2022-12-01T08:47:18.890Z,1.15
2022-12-01T08:49:45.702Z,1.25
2022-12-01T08:52:12.306Z,1.39
2022-12-01T08:54:38.800Z,1.48
2022-12-01T08:57:05.334Z,1.56
2022-12-01T08:59:32.019Z,1.67
2022-12-01T09:02:00.464Z,1.74
2022-12-01T09:04:30.232Z,1.80
2022-12-01T09:06:57.923Z,1.87
2022-12-01T09:09:28.400Z,1.94
2022-12-01T09:11:55.914Z,2.02
2022-12-01T09:14:23.100Z,2.13
2022-12-01T09:16:50.689Z,2.17
2022-12-01T09:19:24.163Z,2.26
2022-12-01T09:21:51.431Z,2.36
2022-12-01T09:24:17.976Z,2.43
2022-12-01T09:26:44.513Z,2.52
2022-12-01T09:29:14.073Z,2.64
2022-12-01T09:31:41.643Z,2.90
2022-12-01T09:34:13.192Z,3.28
2022-12-01T09:36:40.936Z,3.61
2022-12-01T09:39:09.083Z,3.82
2022-12-01T09:41:39.389Z,4.04
2022-12-01T09:44:21.873Z,4.28
2022-12-01T09:46:56.281Z,4.42
2022-12-01T09:49:26.377Z,4.56
2022-12-01T09:51:54.708Z,4.74
2022-12-01T09:54:21.581Z,4.83
2022-12-01T09:56:53.132Z,4.89
2022-12-01T09:59:26.912Z,4.93
2022-12-01T10:02:01.363Z,4.97
2022-12-01T10:04:36.072Z,5.03
2022-12-01T10:07:17.145Z,5.08
2022-12-01T10:09:55.274Z,5.17
2022-12-01T10:12:27.578Z,5.20
2022-12-01T10:15:12.775Z,5.22
2022-12-01T10:18:02.866Z,5.24
2022-12-01T10:20:42.477Z,5.32
2022-12-01T10:23:41.314Z,5.34
2022-12-01T10:26:17.794Z,5.44
2022-12-01T10:29:12.502Z,5.55
2022-12-01T10:31:51.766Z,5.60
2022-12-01T10:34:28.990Z,5.73
2022-12-01T10:36:57.077Z,5.89
2022-12-01T10:39:35.325Z,5.97
2022-12-01T10:42:19.515Z,6.09
2022-12-01T10:44:46.603Z,6.25
2022-12-01T10:47:24.825Z,6.39
2022-12-01T10:49:52.858Z,6.59
2022-12-01T10:52:38.327Z,6.68
2022-12-01T10:55:26.314Z,6.77
2022-12-01T10:57:55.695Z,6.98
2022-12-01T11:00:58.187Z,7.00
2022-12-01T11:03:22.111Z,7.08
2022-12-01T11:05:55.369Z,7.13
2022-12-01T11:08:42.095Z,7.48
2022-12-01T11:11:28.676Z,7.61
2022-12-01T11:13:58.106Z,7.88
2022-12-01T11:16:35.606Z,8.16
2022-12-01T11:19:14.224Z,8.07
2022-12-01T11:21:52.867Z,7.97
2022-12-01T11:24:55.840Z,7.76
2022-12-01T11:27:29.566Z,7.86
2022-12-01T11:30:04.790Z,7.71
2022-12-01T11:32:35.546Z,7.79
2022-12-01T11:35:21.982Z,7.94
2022-12-01T11:40:47.314Z,8.24
2022-12-01T11:43:24.924Z,8.06
2022-12-01T11:45:53.613Z,7.86
2022-12-01T11:48:25.858Z,7.78
2022-12-01T11:51:07.826Z,7.80
2022-12-01T11:53:40.791Z,7.90
2022-12-01T11:56:13.059Z,7.99
2022-12-01T11:58:39.964Z,7.92
2022-12-01T12:01:22.148Z,7.90
2022-12-01T12:04:22.854Z,7.82
2022-12-01T12:07:02.307Z,7.96
2022-12-01T12:10:07.093Z,7.87
2022-12-01T12:12:52.377Z,8.10
2022-12-01T12:15:38.245Z,8.30
2022-12-01T12:18:36.076Z,8.18
2022-12-01T12:21:28.353Z,8.25
2022-12-01T12:24:15.856Z,8.37
2022-12-01T12:26:52.383Z,8.64
2022-12-01T12:29:47.034Z,8.54
2022-12-01T12:32:28.601Z,8.50
2022-12-01T12:34:57.887Z,8.57
2022-12-01T12:37:48.818Z,8.66
2022-12-01T12:40:24.163Z,8.66
2022-12-01T12:43:05.870Z,8.73
2022-12-01T12:45:57.110Z,8.84
2022-12-01T12:48:23.606Z,8.81
2022-12-01T12:51:13.213Z,8.85
2022-12-01T12:53:59.925Z,8.99
2022-12-01T12:56:30.665Z,8.91
2022-12-01T12:59:03.395Z,8.94
2022-12-01T13:01:41.044Z,8.98
2022-12-01T13:04:10.006Z,9.14
2022-12-01T13:06:46.584Z,9.07
2022-12-01T13:09:16.700Z,9.03
2022-12-01T13:12:04.748Z,9.07
2022-12-01T13:14:39.301Z,9.01
2022-12-01T13:17:20.941Z,9.08
2022-12-01T13:19:48.534Z,9.07
2022-12-01T13:22:18.064Z,9.00
2022-12-01T13:24:44.909Z,9.32
2022-12-01T13:27:19.592Z,9.58
2022-12-01T13:29:52.463Z,9.53
2022-12-01T13:32:40.414Z,9.49
2022-12-01T13:35:29.180Z,9.40
2022-12-01T13:38:12.377Z,9.48
2022-12-01T13:40:39.533Z,9.69
2022-12-01T13:43:18.696Z,9.79
2022-12-01T13:45:46.072Z,9.85
2022-12-01T13:48:37.435Z,9.94
2022-12-01T13:51:04.984Z,9.93
2022-12-01T13:53:38.632Z,9.80
2022-12-01T13:56:17.490Z,9.70
2022-12-01T13:58:46.084Z,9.50
2022-12-01T14:01:22.069Z,9.43
2022-12-01T14:04:03.683Z,9.34
2022-12-01T14:06:38.696Z,9.17
2022-12-01T14:09:13.666Z,8.98
2022-12-01T14:11:40.529Z,8.86
2022-12-01T14:14:09.824Z,8.81
2022-12-01T14:16:47.716Z,8.71
2022-12-01T14:19:45.329Z,8.58
2022-12-01T14:22:44.052Z,8.47
2022-12-01T14:25:19.773Z,8.26
2022-12-01T14:27:49.039Z,7.89
2022-12-01T14:30:41.004Z,7.55
2022-12-01T14:33:45.009Z,7.14
2022-12-01T14:36:23.416Z,6.76
2022-12-01T14:39:03.197Z,6.49
2022-12-01T14:41:39.798Z,6.24
2022-12-01T14:44:16.367Z,6.03
2022-12-01T14:47:00.528Z,5.81
2022-12-01T14:49:32.199Z,5.64
2022-12-01T14:52:04.631Z,5.51
2022-12-01T14:54:47.097Z,5.40
2022-12-01T14:57:18.321Z,5.33
2022-12-01T14:59:44.909Z,5.30
2022-12-01T15:02:12.453Z,5.31
2022-12-01T15:05:08.916Z,5.30
2022-12-01T15:07:40.590Z,5.26
2022-12-01T15:10:23.834Z,5.24
2022-12-01T15:12:52.012Z,5.26
2022-12-01T15:15:24.518Z,5.26
2022-12-01T15:17:52.500Z,5.27
2022-12-01T15:20:47.940Z,5.26
2022-12-01T15:23:17.152Z,5.25
2022-12-01T15:25:46.154Z,5.19
2022-12-01T15:28:14.170Z,5.06
2022-12-01T15:30:45.508Z,4.88
2022-12-01T15:33:36.958Z,4.72
2022-12-01T15:36:04.433Z,4.52
2022-12-01T15:38:36.777Z,4.49
2022-12-01T15:41:28.409Z,4.31
2022-12-01T15:44:01.965Z,4.07
2022-12-01T15:46:30.883Z,3.89
2022-12-01T15:49:17.969Z,3.63
2022-12-01T15:51:45.826Z,3.48
2022-12-01T15:54:22.865Z,3.32
2022-12-01T15:56:55.784Z,3.17
2022-12-01T15:59:27.295Z,3.03
2022-12-01T16:01:54.072Z,2.94
2022-12-01T16:04:29.458Z,2.84
2022-12-01T16:06:59.311Z,2.72
2022-12-01T16:09:31.467Z,2.63
2022-12-01T16:12:13.070Z,2.51
2022-12-01T16:15:15.439Z,2.41
2022-12-01T16:17:49.323Z,2.33
2022-12-01T16:20:34.235Z,2.19
2022-12-01T16:23:10.187Z,2.09
2022-12-01T16:25:45.579Z,1.98
2022-12-01T16:28:37.342Z,1.94
2022-12-01T16:31:05.704Z,1.86
2022-12-01T16:33:37.580Z,1.81
2022-12-01T16:36:04.412Z,1.78
2022-12-01T16:38:30.929Z,1.70
2022-12-01T16:40:59.963Z,1.69
2022-12-01T16:43:28.608Z,1.64
2022-12-01T16:46:00.994Z,1.55
2022-12-01T16:48:27.535Z,1.51
2022-12-01T16:50:54.711Z,1.52
2022-12-01T16:53:21.451Z,1.50
2022-12-01T16:55:55.139Z,1.47
2022-12-01T16:58:22.078Z,1.41
2022-12-01T17:00:52.576Z,1.40
2022-12-01T17:03:25.065Z,1.37
2022-12-01T17:05:52.733Z,1.31
2022-12-01T17:08:19.753Z,1.25
2022-12-01T17:10:50.248Z,1.19
2022-12-01T17:13:17.795Z,1.22
2022-12-01T17:15:49.378Z,1.11
2022-12-01T17:18:17.987Z,1.08
2022-12-01T17:20:44.750Z,1.03
2022-12-01T17:23:11.642Z,1.00
2022-12-01T17:25:42.183Z,0.98
2022-12-01T17:28:08.696Z,0.98
2022-12-01T17:30:36.946Z,0.90
2022-12-01T17:33:03.540Z,0.94
2022-12-01T17:35:30.195Z,0.91
2022-12-01T17:37:56.740Z,0.90
2022-12-01T17:40:23.238Z,0.90
2022-12-01T17:42:51.150Z,0.89
2022-12-01T17:45:18.510Z,0.82
2022-12-01T17:47:45.213Z,0.82
2022-12-01T17:50:12.260Z,0.80
2022-12-01T17:52:38.956Z,0.78
2022-12-01T17:55:06.237Z,0.71
2022-12-01T17:57:32.880Z,0.70
2022-12-01T18:00:01.430Z,0.68
2022-12-01T18:02:28.227Z,0.63
2022-12-01T18:04:54.939Z,0.72
2022-12-01T18:07:21.867Z,0.69
2022-12-01T18:09:48.596Z,0.63
2022-12-01T18:12:15.138Z,0.57
2022-12-01T18:14:41.654Z,0.54
2022-12-01T18:17:08.168Z,0.59
2022-12-01T18:19:34.756Z,0.57
2022-12-01T18:22:01.291Z,0.51
2022-12-01T18:24:27.853Z,0.52
2022-12-01T18:26:54.908Z,0.54
2022-12-01T18:29:26.125Z,0.54
2022-12-01T18:31:57.335Z,0.57
2022-12-01T18:34:25.573Z,0.54
2022-12-01T18:36:52.114Z,0.53
2022-12-01T18:39:18.832Z,0.42
2022-12-01T18:41:45.342Z,0.32
2022-12-01T18:44:11.957Z,0.28
2022-12-01T18:46:38.772Z,0.20
2022-12-01T18:49:06.734Z,0.17
2022-12-01T18:51:36.230Z,0.20
2022-12-01T18:54:04.209Z,0.20
2022-12-01T18:56:31.659Z,0.18
2022-12-01T18:59:00.948Z,0.16
2022-12-01T19:01:32.088Z,0.11
2022-12-01T19:03:59.649Z,0.09
2022-12-01T19:06:27.234Z,0.05
2022-12-01T19:08:54.498Z,-0.04
2022-12-01T19:11:21.969Z,-0.04
2022-12-01T19:13:48.707Z,-0.06
2022-12-01T19:16:18.569Z,-0.07
2022-12-01T19:18:46.077Z,-0.08
2022-12-01T19:21:16.171Z,-0.12
2022-12-01T19:23:43.646Z,-0.11
2022-12-01T19:26:12.403Z,-0.10
2022-12-01T19:28:40.381Z,-0.13
2022-12-01T19:31:12.688Z,-0.13
2022-12-01T19:33:39.715Z,-0.14
2022-12-01T19:36:12.085Z,-0.14
2022-12-01T19:38:39.302Z,-0.15
2022-12-01T19:41:07.266Z,-0.08
2022-12-01T19:43:35.013Z,-0.01
2022-12-01T19:46:06.826Z,-0.06
2022-12-01T19:48:33.557Z,-0.02
2022-12-01T19:51:00.221Z,-0.05
2022-12-01T19:53:31.864Z,-0.05
2022-12-01T19:56:03.909Z,0.00
2022-12-01T19:58:33.331Z,-0.06
2022-12-01T20:01:11.860Z,-0.16
2022-12-01T20:03:40.629Z,-0.19
2022-12-01T20:06:12.960Z,-0.18
2022-12-01T20:08:40.065Z,-0.16
2022-12-01T20:11:07.774Z,-0.16
2022-12-01T20:13:36.344Z,-0.22
2022-12-01T20:16:12.058Z,-0.17
2022-12-01T20:18:39.567Z,-0.28
2022-12-01T20:21:16.459Z,-0.33
2022-12-01T20:23:47.189Z,-0.36
2022-12-01T20:26:15.449Z,-0.30
2022-12-01T20:28:42.836Z,-0.29
2022-12-01T20:31:15.930Z,-0.29
2022-12-01T20:33:43.260Z,-0.21
2022-12-01T20:36:10.612Z,-0.17
2022-12-01T20:38:38.060Z,-0.10
2022-12-01T20:41:06.123Z,-0.04
2022-12-01T20:43:33.327Z,0.10
2022-12-01T20:46:00.340Z,0.18
2022-12-01T20:48:27.647Z,0.24
2022-12-01T20:50:54.312Z,0.32
2022-12-01T20:53:20.988Z,0.48
2022-12-01T20:55:47.524Z,0.55
2022-12-01T20:58:14.042Z,0.69
2022-12-01T21:00:45.298Z,0.84
2022-12-01T21:03:13.128Z,0.88
2022-12-01T21:05:41.704Z,0.96
2022-12-01T21:08:11.425Z,1.02
2022-12-01T21:10:40.360Z,1.12
2022-12-01T21:13:38.952Z,1.24
2022-12-01T21:16:14.116Z,1.31
2022-12-01T21:18:43.651Z,1.36
2022-12-01T21:21:21.815Z,1.39
2022-12-01T21:23:59.771Z,1.41
2022-12-01T21:26:26.290Z,1.44
2022-12-01T21:28:55.493Z,1.47
2022-12-01T21:31:22.060Z,1.46
2022-12-01T21:33:48.572Z,1.44
2022-12-01T21:36:18.449Z,1.44
2022-12-01T21:38:46.349Z,1.44
2022-12-01T21:41:20.630Z,1.45
2022-12-01T21:43:47.218Z,1.40
2022-12-01T21:46:16.166Z,1.38
2022-12-01T21:48:43.920Z,1.29
2022-12-01T21:51:22.926Z,1.20
2022-12-01T21:53:51.492Z,1.19
2022-12-01T21:56:21.458Z,1.16
2022-12-01T21:58:49.087Z,1.16
2022-12-01T22:01:30.837Z,1.22
2022-12-01T22:04:02.376Z,1.25
2022-12-01T22:06:41.066Z,1.32
2022-12-01T22:09:34.067Z,1.46
2022-12-01T22:12:29.442Z,1.57
2022-12-01T22:15:00.845Z,1.63
2022-12-01T22:17:27.988Z,1.75
2022-12-01T22:19:59.744Z,1.79
2022-12-01T22:22:28.496Z,1.82
2022-12-01T22:25:01.887Z,1.85
2022-12-01T22:27:43.292Z,1.91
2022-12-01T22:30:09.742Z,1.95
2022-12-01T22:32:44.155Z,1.97
2022-12-01T22:35:16.550Z,1.99
2022-12-01T22:37:48.349Z,2.00
2022-12-01T22:40:39.565Z,2.04
2022-12-01T22:43:18.365Z,2.06
2022-12-01T22:45:47.714Z,2.10
2022-12-01T22:48:33.157Z,2.09
2022-12-01T22:51:24.408Z,2.04
2022-12-01T22:53:56.955Z,1.99
2022-12-01T22:56:23.381Z,1.95
2022-12-01T22:58:49.880Z,1.90
2022-12-01T23:01:33.024Z,1.86
2022-12-01T23:04:08.312Z,1.84
2022-12-01T23:07:02.879Z,1.86
2022-12-01T23:09:42.362Z,1.91
2022-12-01T23:12:11.768Z,1.94
2022-12-01T23:14:41.337Z,1.93
2022-12-01T23:17:14.917Z,1.91
2022-12-01T23:19:41.478Z,1.94
2022-12-01T23:22:09.590Z,1.95
2022-12-01T23:24:36.116Z,1.97
2022-12-01T23:27:02.891Z,1.95
2022-12-01T23:29:30.896Z,1.87
2022-12-01T23:31:57.623Z,1.88
2022-12-01T23:34:24.155Z,1.85
2022-12-01T23:36:50.780Z,1.83
2022-12-01T23:39:19.037Z,1.82
2022-12-01T23:41:48.490Z,1.77
2022-12-01T23:44:34.407Z,1.76
2022-12-01T23:47:01.212Z,1.69
2022-12-01T23:49:31.878Z,1.76
2022-12-01T23:52:01.186Z,1.74
2022-12-01T23:54:32.870Z,1.71
2022-12-01T23:57:09.981Z,1.70
2022-12-01T23:59:37.899Z,1.70
